Weather History for Henderson, KY

Change the Weather History Date:

Monday, January 14, 2013

  Actual Average Record
Temperature  
Mean Temperature 24 °F -  
Max Temperature 26 °F 40 °F 68 °F (1952)
Min Temperature 21 °F 23 °F 1 °F (1964)
Degree Days  
Heating Degree Days 42    
Moisture  
Dew Point 11 °F    
Average Humidity 58    
Maximum Humidity 64    
Minimum Humidity 54    
Precipitation  
Precipitation 0.00 in - - ()
Sea Level Pressure  
Sea Level Pressure 30.39 in    
Wind  
Wind Speed 9 mph (North)    
Max Wind Speed 13 mph    
Max Gust Speed -    
Visibility 10 miles    
Events      
Averages and records for this station are not official NWS values.
T = Trace of Precipitation, MM = Missing Value Source: NWS Daily Summary

Daily Weather History Graph

Daily Weather History Graph

Search for Another Location

Airport:

Trip Planner

Search our weather history database for the weather conditions in past years. The results will help you decide how hot, cold, wet, or windy it might be!

Date:

Astronomy

Jan. 14, 2013 Rise Set
Actual Time 7:05 AM CST 4:54 PM CST
Civil Twilight 6:36 AM CST 5:23 PM CST
Nautical Twilight 6:04 AM CST 5:55 PM CST
Astronomical Twilight 5:32 AM CST 6:27 PM CST
Moon 8:42 AM CST (1/14) 8:35 PM CST (1/14)
Length of Visible Light 10h 47m
Length of Day
9h 49m
Waxing Crescent, 11% of the Moon is Illuminated
Jan 14
Waxing Crescent
Jan 18
First Quarter
Jan 26
Full
Feb 3
Last Quarter
Feb 10
New

Hourly Weather History & Observations

Time (CST) Temp. Windchill Dew Point Humidity Pressure Visibility Wind Dir Wind Speed Gust Speed Precip Events Conditions
12:15 AM 26.6 °F 16.8 °F 14.0 °F 59% 30.31 in 10.0 mi NNW 10.4 mph - N/A   Overcast
12:35 AM 24.8 °F 14.0 °F 14.0 °F 64% 30.32 in 10.0 mi NNW 11.5 mph - N/A   Overcast
12:55 AM 24.8 °F 16.1 °F 12.2 °F 59% 30.33 in 10.0 mi NNW 8.1 mph - N/A   Overcast
1:15 AM 24.8 °F 16.1 °F 12.2 °F 59% 30.34 in 10.0 mi NNW 8.1 mph - N/A   Overcast
1:55 AM 24.8 °F 14.6 °F 12.2 °F 59% 30.36 in 10.0 mi North 10.4 mph - N/A   Overcast
2:15 AM 24.8 °F 16.1 °F 10.4 °F 54% 30.36 in 10.0 mi North 8.1 mph - N/A   Mostly Cloudy
2:55 AM 24.8 °F 16.1 °F 10.4 °F 54% 30.37 in 10.0 mi North 8.1 mph - N/A   Overcast
3:35 AM 23.0 °F 12.4 °F 10.4 °F 59% 30.37 in 10.0 mi NNW 10.4 mph - N/A   Overcast
3:55 AM 23.0 °F 13.1 °F 10.4 °F 59% 30.38 in 10.0 mi NNW 9.2 mph - N/A   Overcast
4:15 AM 21.2 °F 11.7 °F 8.6 °F 58% 30.38 in 10.0 mi North 8.1 mph - N/A   Mostly Cloudy
4:35 AM 21.2 °F 11.7 °F 8.6 °F 58% 30.38 in 10.0 mi North 8.1 mph - N/A   Mostly Cloudy
4:55 AM 21.2 °F 10.1 °F 8.6 °F 58% 30.38 in 10.0 mi North 10.4 mph - N/A   Scattered Clouds
5:15 AM 21.2 °F 10.9 °F 8.6 °F 58% 30.38 in 10.0 mi North 9.2 mph - N/A   Mostly Cloudy
5:35 AM 21.2 °F 12.6 °F 8.6 °F 58% 30.39 in 10.0 mi NNW 6.9 mph - N/A   Mostly Cloudy
5:55 AM 21.2 °F 12.6 °F 8.6 °F 58% 30.40 in 10.0 mi North 6.9 mph - N/A   Mostly Cloudy
6:15 AM 21.2 °F 13.6 °F 8.6 °F 58% 30.40 in 10.0 mi North 5.8 mph - N/A   Overcast
6:35 AM 21.2 °F 10.1 °F 8.6 °F 58% 30.42 in 10.0 mi NNW 10.4 mph - N/A   Overcast
6:55 AM 21.2 °F 11.7 °F 8.6 °F 58% 30.42 in 10.0 mi North 8.1 mph - N/A   Overcast
7:15 AM 21.2 °F 10.9 °F 8.6 °F 58% 30.42 in 10.0 mi NNE 9.2 mph - N/A   Overcast
7:35 AM 21.2 °F 9.5 °F 8.6 °F 58% 30.42 in 10.0 mi NNE 11.5 mph - N/A   Overcast
7:55 AM 21.2 °F 10.9 °F 8.6 °F 58% 30.42 in 10.0 mi NNE 9.2 mph - N/A   Scattered Clouds
8:15 AM 21.2 °F 11.7 °F 8.6 °F 58% 30.41 in 10.0 mi NNE 8.1 mph - N/A   Clear
8:35 AM 21.2 °F 9.5 °F 10.4 °F 63% 30.41 in 10.0 mi NE 11.5 mph - N/A   Scattered Clouds
8:55 AM 21.2 °F 9.5 °F 10.4 °F 63% 30.41 in 10.0 mi NE 11.5 mph - N/A   Scattered Clouds
9:15 AM 23.0 °F 11.7 °F 10.4 °F 59% 30.42 in 10.0 mi NE 11.5 mph - N/A   Partly Cloudy
9:35 AM 23.0 °F 12.4 °F 10.4 °F 59% 30.40 in 10.0 mi NNE 10.4 mph - N/A   Clear
9:55 AM 24.8 °F 14.6 °F 10.4 °F 54% 30.40 in 10.0 mi NNE 10.4 mph - N/A   Clear
10:15 AM 24.8 °F 16.1 °F 10.4 °F 54% 30.43 in 10.0 mi North 8.1 mph - N/A   Clear
10:35 AM 24.8 °F 16.9 °F 10.4 °F 54% 30.42 in 10.0 mi North 6.9 mph - N/A   Clear
10:55 AM 26.6 °F 18.2 °F 12.2 °F 55% 30.44 in 10.0 mi NNW 8.1 mph - N/A   Clear
11:15 AM 24.8 °F 16.1 °F 10.4 °F 54% 30.41 in 10.0 mi North 8.1 mph - N/A   Clear
11:35 AM 24.8 °F 16.1 °F 12.2 °F 59% 30.39 in 10.0 mi North 8.1 mph - N/A   Scattered Clouds
11:55 AM 26.6 °F 16.8 °F 12.2 °F 55% 30.37 in 10.0 mi North 10.4 mph - N/A   Mostly Cloudy
12:15 PM 24.8 °F 14.0 °F 12.2 °F 59% 30.40 in 10.0 mi NNW 11.5 mph - N/A   Mostly Cloudy
12:35 PM 26.6 °F 17.5 °F 12.2 °F 55% 30.41 in 10.0 mi NNW 9.2 mph - N/A   Partly Cloudy
12:55 PM 26.6 °F 16.2 °F 14.0 °F 59% 30.43 in 10.0 mi NNW 11.5 mph - N/A   Partly Cloudy
1:15 PM 26.6 °F 16.2 °F 14.0 °F 59% 30.45 in 10.0 mi NNW 11.5 mph - N/A   Mostly Cloudy
1:35 PM 26.6 °F 16.8 °F 14.0 °F 59% 30.45 in 10.0 mi NNW 10.4 mph - N/A   Overcast
2:15 PM 26.6 °F 19.1 °F 12.2 °F 55% 30.42 in 10.0 mi NE 6.9 mph - N/A   Overcast
2:35 PM 26.6 °F 19.1 °F 12.2 °F 55% 30.42 in 10.0 mi North 6.9 mph - N/A   Overcast
2:55 PM 26.6 °F 16.8 °F 12.2 °F 55% 30.42 in 10.0 mi NNE 10.4 mph - N/A   Mostly Cloudy
3:15 PM 26.6 °F 19.1 °F 12.2 °F 55% 30.42 in 10.0 mi NNE 6.9 mph - N/A   Mostly Cloudy
3:35 PM 26.6 °F 16.8 °F 12.2 °F 55% 30.41 in 10.0 mi NE 10.4 mph - N/A   Mostly Cloudy
3:55 PM 26.6 °F 16.8 °F 14.0 °F 59% 30.41 in 10.0 mi NNE 10.4 mph - N/A   Mostly Cloudy
4:15 PM 26.6 °F 15.7 °F 12.2 °F 55% 30.39 in 10.0 mi NE 12.7 mph - N/A   Mostly Cloudy
4:35 PM 26.6 °F 17.5 °F 14.0 °F 59% 30.41 in 10.0 mi North 9.2 mph - N/A   Partly Cloudy
4:55 PM 26.6 °F 16.8 °F 12.2 °F 55% 30.40 in 10.0 mi North 10.4 mph - N/A   Clear
5:15 PM 26.6 °F 16.8 °F 14.0 °F 59% 30.39 in 10.0 mi NNE 10.4 mph - N/A   Partly Cloudy
5:35 PM 26.6 °F 18.2 °F 12.2 °F 55% 30.40 in 10.0 mi North 8.1 mph - N/A   Partly Cloudy
5:55 PM 24.8 °F 14.6 °F 12.2 °F 59% 30.40 in 10.0 mi North 10.4 mph - N/A   Clear
6:15 PM 24.8 °F 15.3 °F 12.2 °F 59% 30.39 in 10.0 mi North 9.2 mph - N/A   Clear
6:35 PM 24.8 °F 14.0 °F 12.2 °F 59% 30.38 in 10.0 mi NNE 11.5 mph - N/A   Clear
6:55 PM 24.8 °F 16.1 °F 12.2 °F 59% 30.38 in 10.0 mi North 8.1 mph - N/A   Clear
7:15 PM 24.8 °F 14.6 °F 12.2 °F 59% 30.37 in 10.0 mi NNE 10.4 mph - N/A   Clear
7:35 PM 24.8 °F 15.3 °F 12.2 °F 59% 30.37 in 10.0 mi NNE 9.2 mph - N/A   Clear
7:55 PM 24.8 °F 15.3 °F 12.2 °F 59% 30.38 in 10.0 mi North 9.2 mph - N/A   Clear
8:15 PM 24.8 °F 16.1 °F 12.2 °F 59% 30.38 in 10.0 mi North 8.1 mph - N/A   Clear
8:35 PM 24.8 °F 15.3 °F 12.2 °F 59% 30.37 in 10.0 mi North 9.2 mph - N/A   Clear
8:55 PM 24.8 °F 15.3 °F 12.2 °F 59% 30.37 in 10.0 mi North 9.2 mph - N/A   Clear
9:15 PM 24.8 °F 16.1 °F 12.2 °F 59% 30.37 in 10.0 mi North 8.1 mph - N/A   Clear
9:35 PM 24.8 °F 15.3 °F 12.2 °F 59% 30.36 in 10.0 mi North 9.2 mph - N/A   Clear
9:55 PM 24.8 °F 13.4 °F 12.2 °F 59% 30.35 in 10.0 mi North 12.7 mph - N/A   Clear
10:15 PM 24.8 °F 14.0 °F 12.2 °F 59% 30.36 in 10.0 mi NNE 11.5 mph - N/A   Clear
10:35 PM 24.8 °F 14.0 °F 12.2 °F 59% 30.37 in 10.0 mi NNE 11.5 mph - N/A   Clear
10:55 PM 24.8 °F 14.6 °F 12.2 °F 59% 30.37 in 10.0 mi North 10.4 mph - N/A   Clear
11:15 PM 24.8 °F 14.6 °F 12.2 °F 59% 30.37 in 10.0 mi North 10.4 mph - N/A   Clear
11:35 PM 24.8 °F 15.3 °F 12.2 °F 59% 30.37 in 10.0 mi North 9.2 mph - N/A   Clear
11:55 PM 24.8 °F 14.6 °F 12.2 °F 59% 30.35 in 10.0 mi NNE 10.4 mph - N/A   Clear